AVA829 MMPR-SKBG
Flight info
| Callsign | AVA829 |
|---|---|
| Flight time | 4h 37m |
| Altitude | 35000 |
| Route | VOLAT1D VOLAT UT119 ESPOS DCT AMEKU J13 TAP UL423 IMOLA/N0453F370 UL423 ISEBA UG440 TBG UP790 KUBEK DCT IVRIK IVRIK1B |
| Aircraft | A320/M-SDE3FGHIRWY/LB1 |
Departure
| Time | 2026-04-23 18:15 |
|---|---|
| Airport | Puerto Vallarta International Airport (MMPR) |
Arrival
| Time | 2026-04-23 22:52 |
|---|---|
| Airport | Palonegro Airport (SKBG) |
| Time | Latitude | Longitude | Altitude | Speed | Heading |
|---|---|---|---|---|---|
| 2026-04-23 17:44 | 20.68188 | -105.24551 | 29 ft | 0 kts | 47° |
| 2026-04-23 18:03 | 20.68188 | -105.24552 | 29 ft | 0 kts | 47° |
| 2026-04-23 18:06 | 20.68187 | -105.24553 | 29 ft | 2 kts | 47° |
| 2026-04-23 18:06 | 20.68170 | -105.24572 | 28 ft | 4 kts | 47° |
| 2026-04-23 18:07 | 20.68151 | -105.24593 | 29 ft | 4 kts | 46° |
| 2026-04-23 18:07 | 20.68130 | -105.24611 | 29 ft | 4 kts | 15° |
| 2026-04-23 18:07 | 20.68107 | -105.24609 | 29 ft | 3 kts | 320° |
| 2026-04-23 18:07 | 20.68101 | -105.24604 | 29 ft | 0 kts | 317° |
| 2026-04-23 18:10 | 20.68105 | -105.24608 | 29 ft | 3 kts | 317° |
| 2026-04-23 18:10 | 20.68115 | -105.24618 | 29 ft | 1 kts | 317° |
| 2026-04-23 18:10 | 20.68121 | -105.24624 | 29 ft | 5 kts | 317° |
| 2026-04-23 18:11 | 20.68161 | -105.24664 | 29 ft | 9 kts | 317° |
| 2026-04-23 18:11 | 20.68232 | -105.24698 | 29 ft | 12 kts | 6° |
| 2026-04-23 18:11 | 20.68318 | -105.24671 | 29 ft | 14 kts | 17° |
| 2026-04-23 18:11 | 20.68448 | -105.24628 | 29 ft | 21 kts | 17° |
| 2026-04-23 18:12 | 20.68548 | -105.24538 | 29 ft | 18 kts | 46° |
| 2026-04-23 18:12 | 20.68626 | -105.24450 | 29 ft | 16 kts | 47° |
| 2026-04-23 18:12 | 20.68695 | -105.24370 | 29 ft | 14 kts | 47° |
| 2026-04-23 18:12 | 20.68757 | -105.24299 | 29 ft | 13 kts | 47° |
| 2026-04-23 18:13 | 20.68831 | -105.24262 | 29 ft | 11 kts | 350° |
| 2026-04-23 18:13 | 20.68890 | -105.24304 | 28 ft | 9 kts | 318° |
| 2026-04-23 18:13 | 20.68929 | -105.24349 | 28 ft | 7 kts | 289° |
| 2026-04-23 18:13 | 20.68911 | -105.24384 | 29 ft | 6 kts | 224° |
| 2026-04-23 18:14 | 20.68833 | -105.24473 | 30 ft | 43 kts | 227° |
| 2026-04-23 18:14 | 20.68474 | -105.24888 | 28 ft | 106 kts | 228° |
| 2026-04-23 18:14 | 20.67848 | -105.25600 | 32 ft | 154 kts | 227° |
| 2026-04-23 18:14 | 20.67039 | -105.26505 | 361 ft | 177 kts | 227° |
| 2026-04-23 18:15 | 20.66140 | -105.27484 | 1103 ft | 187 kts | 226° |
| 2026-04-23 18:15 | 20.65213 | -105.28495 | 1833 ft | 197 kts | 222° |
| 2026-04-23 18:15 | 20.63922 | -105.29119 | 2013 ft | 220 kts | 184° |
| 2026-04-23 18:15 | 20.62397 | -105.28691 | 2264 ft | 243 kts | 144° |
| 2026-04-23 18:16 | 20.61322 | -105.27225 | 2600 ft | 262 kts | 114° |
| 2026-04-23 18:16 | 20.60708 | -105.25380 | 3235 ft | 269 kts | 105° |
| 2026-04-23 18:16 | 20.60254 | -105.23429 | 3947 ft | 272 kts | 102° |
| 2026-04-23 18:17 | 20.59424 | -105.19438 | 5373 ft | 279 kts | 102° |
| 2026-04-23 18:17 | 20.58972 | -105.17407 | 6034 ft | 283 kts | 102° |
| 2026-04-23 18:17 | 20.58491 | -105.15359 | 6672 ft | 286 kts | 103° |
| 2026-04-23 18:17 | 20.57991 | -105.13307 | 7265 ft | 291 kts | 103° |
| 2026-04-23 18:18 | 20.57468 | -105.11210 | 7898 ft | 295 kts | 104° |
| 2026-04-23 18:18 | 20.56931 | -105.09077 | 8506 ft | 300 kts | 104° |
| 2026-04-23 18:18 | 20.56384 | -105.06920 | 9164 ft | 303 kts | 104° |
| 2026-04-23 18:18 | 20.55825 | -105.04717 | 9801 ft | 308 kts | 104° |
| 2026-04-23 18:19 | 20.55257 | -105.02479 | 10212 ft | 321 kts | 104° |
| 2026-04-23 18:19 | 20.54655 | -105.00094 | 10341 ft | 344 kts | 105° |
| 2026-04-23 18:19 | 20.54019 | -104.97580 | 10457 ft | 364 kts | 105° |
| 2026-04-23 18:19 | 20.53345 | -104.94923 | 10784 ft | 375 kts | 104° |
| 2026-04-23 18:20 | 20.52658 | -104.92213 | 11312 ft | 379 kts | 105° |
| 2026-04-23 18:20 | 20.51971 | -104.89517 | 11861 ft | 382 kts | 105° |
| 2026-04-23 18:20 | 20.51269 | -104.86764 | 12433 ft | 385 kts | 105° |
| 2026-04-23 18:20 | 20.50563 | -104.83989 | 13012 ft | 388 kts | 105° |
| 2026-04-23 18:21 | 20.49852 | -104.81190 | 13559 ft | 392 kts | 105° |
| 2026-04-23 18:21 | 20.49141 | -104.78391 | 14063 ft | 395 kts | 105° |
| 2026-04-23 18:21 | 20.48415 | -104.75544 | 14543 ft | 398 kts | 105° |
| 2026-04-23 18:21 | 20.47688 | -104.72684 | 15012 ft | 401 kts | 105° |
| 2026-04-23 18:22 | 20.46967 | -104.69846 | 15467 ft | 403 kts | 105° |
| 2026-04-23 18:22 | 20.46225 | -104.66940 | 15895 ft | 406 kts | 105° |
| 2026-04-23 18:22 | 20.45474 | -104.64010 | 16341 ft | 409 kts | 105° |
| 2026-04-23 18:22 | 20.44720 | -104.61062 | 16818 ft | 412 kts | 105° |
| 2026-04-23 18:23 | 20.44219 | -104.59100 | 17113 ft | 414 kts | 105° |
| 2026-04-23 18:23 | 20.42445 | -104.52170 | 18097 ft | 420 kts | 104° |
| 2026-04-23 18:24 | 20.40897 | -104.46109 | 18840 ft | 425 kts | 105° |
| 2026-04-23 18:24 | 20.40114 | -104.43060 | 19187 ft | 428 kts | 104° |
| 2026-04-23 18:24 | 20.39323 | -104.39987 | 19550 ft | 430 kts | 104° |
| 2026-04-23 18:25 | 20.37725 | -104.33793 | 20274 ft | 435 kts | 104° |
| 2026-04-23 18:25 | 20.36933 | -104.30729 | 20602 ft | 437 kts | 104° |
| 2026-04-23 18:25 | 20.36089 | -104.27590 | 20951 ft | 440 kts | 106° |
| 2026-04-23 18:25 | 20.35177 | -104.24475 | 21296 ft | 442 kts | 107° |
| 2026-04-23 18:26 | 20.34211 | -104.21339 | 21625 ft | 444 kts | 108° |
| 2026-04-23 18:26 | 20.33223 | -104.18209 | 21966 ft | 446 kts | 108° |
| 2026-04-23 18:26 | 20.32244 | -104.15097 | 22284 ft | 449 kts | 107° |
| 2026-04-23 18:26 | 20.31259 | -104.11931 | 22613 ft | 451 kts | 107° |
| 2026-04-23 18:27 | 20.30281 | -104.08744 | 22947 ft | 453 kts | 107° |
| 2026-04-23 18:27 | 20.29303 | -104.05538 | 23279 ft | 455 kts | 107° |
| 2026-04-23 18:27 | 20.28324 | -104.02316 | 23588 ft | 458 kts | 107° |
| 2026-04-23 18:27 | 20.27341 | -103.99089 | 23872 ft | 460 kts | 107° |
| 2026-04-23 18:28 | 20.26347 | -103.95837 | 24125 ft | 461 kts | 107° |
| 2026-04-23 18:28 | 20.25349 | -103.92584 | 24376 ft | 463 kts | 107° |
| 2026-04-23 18:28 | 20.24364 | -103.89362 | 24644 ft | 465 kts | 107° |
| 2026-04-23 18:28 | 20.23359 | -103.86076 | 24903 ft | 466 kts | 107° |
| 2026-04-23 18:29 | 20.22348 | -103.82780 | 25164 ft | 468 kts | 107° |
| 2026-04-23 18:29 | 20.21330 | -103.79471 | 25417 ft | 470 kts | 107° |
| 2026-04-23 18:29 | 20.20310 | -103.76151 | 25683 ft | 471 kts | 107° |
| 2026-04-23 18:29 | 20.19301 | -103.72855 | 25935 ft | 473 kts | 107° |
| 2026-04-23 18:30 | 20.18279 | -103.69519 | 26191 ft | 475 kts | 107° |
| 2026-04-23 18:30 | 20.17247 | -103.66159 | 26459 ft | 476 kts | 107° |
| 2026-04-23 18:30 | 20.16227 | -103.62845 | 26716 ft | 478 kts | 107° |
| 2026-04-23 18:30 | 20.15187 | -103.59465 | 26952 ft | 479 kts | 107° |
| 2026-04-23 18:31 | 20.14146 | -103.56083 | 27195 ft | 481 kts | 107° |
| 2026-04-23 18:31 | 20.13098 | -103.52690 | 27425 ft | 483 kts | 107° |
| 2026-04-23 18:31 | 20.12044 | -103.49277 | 27654 ft | 484 kts | 107° |
| 2026-04-23 18:31 | 20.11003 | -103.45904 | 27881 ft | 486 kts | 107° |
| 2026-04-23 18:32 | 20.09936 | -103.42443 | 28107 ft | 487 kts | 107° |
| 2026-04-23 18:32 | 20.08874 | -103.39007 | 28346 ft | 489 kts | 107° |
| 2026-04-23 18:32 | 20.07819 | -103.35609 | 28583 ft | 490 kts | 107° |
| 2026-04-23 18:32 | 20.06739 | -103.32143 | 28804 ft | 492 kts | 107° |
| 2026-04-23 18:33 | 20.05666 | -103.28692 | 29121 ft | 491 kts | 107° |
| 2026-04-23 18:33 | 20.04595 | -103.25232 | 29439 ft | 490 kts | 107° |
| 2026-04-23 18:33 | 20.03545 | -103.21839 | 29773 ft | 489 kts | 107° |
| 2026-04-23 18:33 | 20.02476 | -103.18390 | 30089 ft | 489 kts | 107° |
| 2026-04-23 18:34 | 20.01403 | -103.14942 | 30374 ft | 488 kts | 107° |
| 2026-04-23 18:34 | 20.00348 | -103.11557 | 30645 ft | 488 kts | 107° |
| 2026-04-23 18:34 | 19.99282 | -103.08130 | 30940 ft | 487 kts | 107° |
| 2026-04-23 18:34 | 19.98216 | -103.04711 | 31201 ft | 486 kts | 107° |
| 2026-04-23 18:35 | 19.97149 | -103.01296 | 31481 ft | 486 kts | 107° |
| 2026-04-23 18:35 | 19.96083 | -102.97888 | 31755 ft | 485 kts | 107° |
| 2026-04-23 18:35 | 19.95018 | -102.94490 | 32042 ft | 484 kts | 108° |
| 2026-04-23 18:35 | 19.93876 | -102.91113 | 32306 ft | 484 kts | 109° |
| 2026-04-23 18:36 | 19.92655 | -102.87812 | 32582 ft | 484 kts | 111° |
| 2026-04-23 18:36 | 19.91364 | -102.84513 | 32829 ft | 484 kts | 111° |
| 2026-04-23 18:36 | 19.90044 | -102.81215 | 33085 ft | 483 kts | 112° |
| 2026-04-23 18:36 | 19.88729 | -102.77924 | 33351 ft | 483 kts | 111° |
| 2026-04-23 18:37 | 19.87453 | -102.74672 | 33596 ft | 482 kts | 111° |
| 2026-04-23 18:37 | 19.86182 | -102.71364 | 33866 ft | 482 kts | 110° |
| 2026-04-23 18:37 | 19.84934 | -102.68063 | 34113 ft | 481 kts | 110° |
| 2026-04-23 18:37 | 19.83693 | -102.64762 | 34340 ft | 480 kts | 110° |
| 2026-04-23 18:38 | 19.82452 | -102.61471 | 34567 ft | 480 kts | 110° |
| 2026-04-23 18:38 | 19.81203 | -102.58179 | 34783 ft | 479 kts | 110° |
| 2026-04-23 18:38 | 19.79948 | -102.54900 | 34961 ft | 479 kts | 110° |
| 2026-04-23 18:39 | 19.77428 | -102.48360 | 35017 ft | 481 kts | 110° |
| 2026-04-23 18:39 | 19.74896 | -102.41773 | 35024 ft | 481 kts | 110° |
| 2026-04-23 18:40 | 19.72373 | -102.35186 | 35033 ft | 481 kts | 110° |
| 2026-04-23 18:40 | 19.69864 | -102.28632 | 35039 ft | 481 kts | 110° |
| 2026-04-23 18:41 | 19.67328 | -102.22044 | 35073 ft | 481 kts | 110° |
| 2026-04-23 18:41 | 19.64790 | -102.15462 | 35120 ft | 481 kts | 110° |
| 2026-04-23 18:42 | 19.63109 | -102.11099 | 35144 ft | 481 kts | 110° |
| 2026-04-23 18:43 | 19.57276 | -101.95984 | 35181 ft | 481 kts | 110° |
| 2026-04-23 18:43 | 19.54744 | -101.89451 | 35171 ft | 481 kts | 110° |
| 2026-04-23 18:44 | 19.52198 | -101.82896 | 35143 ft | 480 kts | 110° |
| 2026-04-23 18:44 | 19.49672 | -101.76387 | 35108 ft | 480 kts | 110° |
| 2026-04-23 18:45 | 19.47125 | -101.69816 | 35065 ft | 480 kts | 110° |
| 2026-04-23 18:45 | 19.44577 | -101.63265 | 35038 ft | 480 kts | 110° |
| 2026-04-23 18:46 | 19.42042 | -101.56761 | 35036 ft | 480 kts | 110° |
| 2026-04-23 18:46 | 19.39484 | -101.50219 | 35035 ft | 480 kts | 110° |
| 2026-04-23 18:47 | 19.36931 | -101.43681 | 35027 ft | 480 kts | 110° |
| 2026-04-23 18:47 | 19.34391 | -101.37176 | 35023 ft | 480 kts | 110° |
| 2026-04-23 18:48 | 19.31838 | -101.30642 | 35015 ft | 480 kts | 110° |
| 2026-04-23 18:48 | 19.29286 | -101.24145 | 35002 ft | 480 kts | 110° |
| 2026-04-23 18:49 | 19.26720 | -101.17603 | 34988 ft | 480 kts | 110° |
| 2026-04-23 18:49 | 19.24172 | -101.11105 | 34977 ft | 479 kts | 110° |
| 2026-04-23 18:50 | 19.22050 | -101.05692 | 34971 ft | 479 kts | 110° |
| 2026-04-23 18:50 | 19.19066 | -100.98108 | 34960 ft | 479 kts | 110° |
| 2026-04-23 18:51 | 19.16492 | -100.91601 | 34948 ft | 479 kts | 110° |
| 2026-04-23 18:51 | 19.13926 | -100.85101 | 34941 ft | 478 kts | 110° |
| 2026-04-23 18:52 | 19.11355 | -100.78589 | 34937 ft | 478 kts | 110° |
| 2026-04-23 18:52 | 19.08806 | -100.72147 | 34933 ft | 478 kts | 110° |
| 2026-04-23 18:53 | 19.06230 | -100.65634 | 34929 ft | 478 kts | 110° |
| 2026-04-23 18:53 | 19.03665 | -100.59177 | 34933 ft | 478 kts | 110° |
| 2026-04-23 18:54 | 19.01078 | -100.52677 | 34933 ft | 478 kts | 111° |
| 2026-04-23 18:54 | 18.98510 | -100.46228 | 34939 ft | 478 kts | 110° |
| 2026-04-23 18:55 | 18.95938 | -100.39738 | 34953 ft | 478 kts | 111° |
| 2026-04-23 18:55 | 18.93368 | -100.33284 | 34959 ft | 478 kts | 111° |
| 2026-04-23 18:56 | 18.91212 | -100.27899 | 34970 ft | 478 kts | 111° |
| 2026-04-23 18:56 | 18.88615 | -100.21406 | 34977 ft | 478 kts | 111° |
| 2026-04-23 18:57 | 18.86045 | -100.14971 | 34990 ft | 477 kts | 111° |
| 2026-04-23 18:57 | 18.83449 | -100.08493 | 34997 ft | 477 kts | 111° |
| 2026-04-23 18:58 | 18.80868 | -100.02068 | 35000 ft | 477 kts | 111° |
| 2026-04-23 18:58 | 18.78276 | -99.95608 | 35001 ft | 477 kts | 111° |
| 2026-04-23 18:59 | 18.75690 | -99.89180 | 35001 ft | 477 kts | 111° |
| 2026-04-23 18:59 | 18.73122 | -99.82708 | 34993 ft | 477 kts | 107° |
| 2026-04-23 19:00 | 18.71246 | -99.75997 | 34988 ft | 476 kts | 104° |
| 2026-04-23 19:00 | 18.69415 | -99.69332 | 34981 ft | 476 kts | 104° |
| 2026-04-23 19:01 | 18.67551 | -99.62609 | 34970 ft | 476 kts | 104° |
| 2026-04-23 19:01 | 18.65704 | -99.55929 | 34975 ft | 476 kts | 104° |
| 2026-04-23 19:02 | 18.63844 | -99.49204 | 34993 ft | 477 kts | 104° |
| 2026-04-23 19:02 | 18.61987 | -99.42486 | 34999 ft | 477 kts | 104° |
| 2026-04-23 19:03 | 18.60122 | -99.35768 | 35000 ft | 477 kts | 104° |
| 2026-04-23 19:03 | 18.58253 | -99.29044 | 34995 ft | 478 kts | 104° |
| 2026-04-23 19:04 | 18.56388 | -99.22341 | 34981 ft | 478 kts | 104° |
| 2026-04-23 19:04 | 18.54513 | -99.15603 | 34954 ft | 478 kts | 104° |
| 2026-04-23 19:05 | 18.52649 | -99.08909 | 34918 ft | 479 kts | 104° |
| 2026-04-23 19:05 | 18.50757 | -99.02158 | 34910 ft | 478 kts | 105° |
| 2026-04-23 19:06 | 18.47915 | -98.95848 | 34912 ft | 481 kts | 124° |
| 2026-04-23 19:06 | 18.44058 | -98.90061 | 34905 ft | 481 kts | 124° |
| 2026-04-23 19:07 | 18.40229 | -98.84305 | 34903 ft | 482 kts | 124° |
| 2026-04-23 19:07 | 18.36401 | -98.78555 | 34903 ft | 482 kts | 124° |
| 2026-04-23 19:08 | 18.32544 | -98.72774 | 34904 ft | 482 kts | 124° |
| 2026-04-23 19:08 | 18.28673 | -98.66990 | 34906 ft | 482 kts | 124° |
| 2026-04-23 19:09 | 18.24821 | -98.61240 | 34907 ft | 483 kts | 124° |
| 2026-04-23 19:09 | 18.20957 | -98.55467 | 34908 ft | 483 kts | 124° |
| 2026-04-23 19:10 | 18.17082 | -98.49675 | 34915 ft | 483 kts | 125° |
| 2026-04-23 19:10 | 18.13211 | -98.43901 | 34913 ft | 483 kts | 125° |
| 2026-04-23 19:11 | 18.09362 | -98.38156 | 34921 ft | 483 kts | 125° |
| 2026-04-23 19:11 | 18.05483 | -98.32372 | 34925 ft | 483 kts | 125° |
| 2026-04-23 19:12 | 18.02255 | -98.27570 | 34930 ft | 483 kts | 125° |
| 2026-04-23 19:12 | 17.97740 | -98.20863 | 34933 ft | 483 kts | 125° |
| 2026-04-23 19:13 | 17.93851 | -98.15093 | 34941 ft | 483 kts | 125° |
| 2026-04-23 19:13 | 17.89968 | -98.09337 | 34939 ft | 483 kts | 125° |
| 2026-04-23 19:14 | 17.86108 | -98.03612 | 34950 ft | 483 kts | 126° |
| 2026-04-23 19:14 | 17.82216 | -97.97839 | 34954 ft | 483 kts | 126° |
| 2026-04-23 19:15 | 17.78349 | -97.92114 | 34959 ft | 483 kts | 126° |
| 2026-04-23 19:15 | 17.74462 | -97.86351 | 34967 ft | 483 kts | 126° |
| 2026-04-23 19:16 | 17.70584 | -97.80637 | 34971 ft | 483 kts | 126° |
| 2026-04-23 19:16 | 17.66659 | -97.74917 | 34976 ft | 483 kts | 127° |
| 2026-04-23 19:17 | 17.60658 | -97.66444 | 34975 ft | 483 kts | 127° |
| 2026-04-23 19:17 | 17.56632 | -97.60780 | 34972 ft | 483 kts | 127° |
| 2026-04-23 19:18 | 17.52648 | -97.55141 | 34969 ft | 484 kts | 127° |
| 2026-04-23 19:18 | 17.48647 | -97.49466 | 34964 ft | 484 kts | 127° |
| 2026-04-23 19:19 | 17.42690 | -97.40950 | 34965 ft | 484 kts | 126° |
| 2026-04-23 19:20 | 17.37014 | -97.32169 | 34949 ft | 484 kts | 124° |
| 2026-04-23 19:20 | 17.33271 | -97.26370 | 34953 ft | 484 kts | 125° |
| 2026-04-23 19:21 | 17.27521 | -97.17651 | 34939 ft | 484 kts | 126° |
| 2026-04-23 19:22 | 17.23714 | -97.11903 | 34937 ft | 483 kts | 126° |
| 2026-04-23 19:22 | 17.17938 | -97.03237 | 34939 ft | 482 kts | 127° |
| 2026-04-23 19:23 | 17.14031 | -96.97566 | 34995 ft | 482 kts | 127° |
| 2026-04-23 19:24 | 17.08132 | -96.89037 | 35079 ft | 482 kts | 127° |
| 2026-04-23 19:24 | 17.02285 | -96.80523 | 35155 ft | 481 kts | 127° |
| 2026-04-23 19:25 | 16.95780 | -96.68423 | 35151 ft | 482 kts | 108° |
| 2026-04-23 19:26 | 16.92714 | -96.58393 | 35087 ft | 482 kts | 108° |
| 2026-04-23 19:27 | 16.87590 | -96.41723 | 34920 ft | 483 kts | 108° |
| 2026-04-23 19:28 | 16.83481 | -96.28404 | 34884 ft | 483 kts | 108° |
| 2026-04-23 19:29 | 16.80385 | -96.18378 | 34881 ft | 483 kts | 108° |
| 2026-04-23 19:30 | 16.77303 | -96.08389 | 34875 ft | 483 kts | 108° |
| 2026-04-23 19:31 | 16.74196 | -95.98358 | 34872 ft | 483 kts | 108° |
| 2026-04-23 19:31 | 16.72128 | -95.91717 | 34874 ft | 484 kts | 108° |
| 2026-04-23 19:32 | 16.70038 | -95.85024 | 34879 ft | 484 kts | 108° |
| 2026-04-23 19:32 | 16.67965 | -95.78351 | 34877 ft | 483 kts | 108° |
| 2026-04-23 19:33 | 16.65898 | -95.71706 | 34879 ft | 484 kts | 108° |
| 2026-04-23 19:33 | 16.62776 | -95.61680 | 34880 ft | 484 kts | 108° |
| 2026-04-23 19:34 | 16.60698 | -95.55047 | 34881 ft | 484 kts | 108° |
| 2026-04-23 19:35 | 16.57555 | -95.45030 | 34887 ft | 484 kts | 108° |
| 2026-04-23 19:35 | 16.55473 | -95.38409 | 34890 ft | 484 kts | 108° |
| 2026-04-23 19:36 | 16.53381 | -95.31744 | 34890 ft | 484 kts | 108° |
| 2026-04-23 19:36 | 16.51288 | -95.25073 | 34887 ft | 484 kts | 108° |
| 2026-04-23 19:37 | 16.49192 | -95.18405 | 34897 ft | 484 kts | 108° |
| 2026-04-23 19:37 | 16.47081 | -95.11731 | 34901 ft | 484 kts | 110° |
| 2026-04-23 19:38 | 16.43990 | -95.05531 | 34903 ft | 483 kts | 123° |
| 2026-04-23 19:38 | 16.40412 | -94.99647 | 34907 ft | 483 kts | 123° |
| 2026-04-23 19:39 | 16.36829 | -94.93719 | 35098 ft | 483 kts | 123° |
| 2026-04-23 19:39 | 16.35044 | -94.90759 | 35322 ft | 483 kts | 123° |
| 2026-04-23 19:39 | 16.33258 | -94.87802 | 35506 ft | 483 kts | 123° |
| 2026-04-23 19:39 | 16.31459 | -94.84829 | 35718 ft | 482 kts | 123° |
| 2026-04-23 19:40 | 16.29692 | -94.81911 | 35904 ft | 482 kts | 123° |
| 2026-04-23 19:40 | 16.27901 | -94.78959 | 36100 ft | 482 kts | 124° |
| 2026-04-23 19:40 | 16.26110 | -94.76008 | 36282 ft | 481 kts | 124° |
| 2026-04-23 19:40 | 16.24321 | -94.73057 | 36464 ft | 481 kts | 124° |
| 2026-04-23 19:41 | 16.22531 | -94.70102 | 36636 ft | 481 kts | 124° |
| 2026-04-23 19:41 | 16.20749 | -94.67161 | 36810 ft | 480 kts | 124° |
| 2026-04-23 19:41 | 16.19568 | -94.65214 | 36896 ft | 480 kts | 124° |
| 2026-04-23 19:42 | 16.15408 | -94.58367 | 36912 ft | 480 kts | 124° |
| 2026-04-23 19:42 | 16.11858 | -94.52533 | 36912 ft | 479 kts | 124° |
| 2026-04-23 19:43 | 16.08290 | -94.46669 | 36917 ft | 479 kts | 124° |
| 2026-04-23 19:43 | 16.04728 | -94.40812 | 36917 ft | 479 kts | 124° |
| 2026-04-23 19:44 | 16.01154 | -94.34947 | 36917 ft | 479 kts | 124° |
| 2026-04-23 19:44 | 15.97600 | -94.29130 | 36917 ft | 479 kts | 124° |
| 2026-04-23 19:45 | 15.94625 | -94.24258 | 36919 ft | 479 kts | 124° |
| 2026-04-23 19:45 | 15.91048 | -94.18396 | 36920 ft | 479 kts | 124° |
| 2026-04-23 19:46 | 15.87483 | -94.12564 | 36921 ft | 480 kts | 124° |
| 2026-04-23 19:46 | 15.83899 | -94.06704 | 36921 ft | 480 kts | 124° |
| 2026-04-23 19:47 | 15.80300 | -94.00839 | 36922 ft | 481 kts | 124° |
| 2026-04-23 19:47 | 15.76728 | -93.95010 | 36919 ft | 481 kts | 124° |
| 2026-04-23 19:48 | 15.73136 | -93.89141 | 36925 ft | 481 kts | 124° |
| 2026-04-23 19:48 | 15.69553 | -93.83299 | 36921 ft | 481 kts | 124° |
| 2026-04-23 19:49 | 15.65942 | -93.77429 | 36922 ft | 481 kts | 124° |
| 2026-04-23 19:49 | 15.62358 | -93.71603 | 36923 ft | 481 kts | 124° |
| 2026-04-23 19:50 | 15.58755 | -93.65736 | 36921 ft | 481 kts | 124° |
| 2026-04-23 19:50 | 15.55160 | -93.59898 | 36922 ft | 481 kts | 124° |
| 2026-04-23 19:51 | 15.51549 | -93.54029 | 36923 ft | 481 kts | 124° |
| 2026-04-23 19:51 | 15.47942 | -93.48174 | 36926 ft | 481 kts | 124° |
| 2026-04-23 19:52 | 15.44344 | -93.42354 | 36925 ft | 481 kts | 124° |
| 2026-04-23 19:52 | 15.40734 | -93.36503 | 36929 ft | 481 kts | 124° |
| 2026-04-23 19:53 | 15.37116 | -93.30652 | 36930 ft | 481 kts | 124° |
| 2026-04-23 19:53 | 15.33519 | -93.24843 | 36932 ft | 481 kts | 124° |
| 2026-04-23 19:54 | 15.29894 | -93.18993 | 36932 ft | 481 kts | 124° |
| 2026-04-23 19:54 | 15.26301 | -93.13192 | 36927 ft | 480 kts | 124° |
| 2026-04-23 19:55 | 15.22696 | -93.07358 | 36923 ft | 480 kts | 124° |
| 2026-04-23 19:55 | 15.19093 | -93.01540 | 36926 ft | 480 kts | 124° |
| 2026-04-23 19:56 | 15.15483 | -92.95718 | 36928 ft | 480 kts | 124° |
| 2026-04-23 19:56 | 15.11884 | -92.89925 | 36936 ft | 480 kts | 124° |
| 2026-04-23 19:57 | 15.08262 | -92.84106 | 36940 ft | 480 kts | 124° |
| 2026-04-23 19:57 | 15.04653 | -92.78310 | 36952 ft | 481 kts | 124° |
| 2026-04-23 19:58 | 15.01027 | -92.72487 | 36962 ft | 481 kts | 124° |
| 2026-04-23 19:58 | 14.97393 | -92.66664 | 36970 ft | 482 kts | 125° |
| 2026-04-23 19:59 | 14.93754 | -92.60836 | 36966 ft | 482 kts | 125° |
| 2026-04-23 19:59 | 14.90121 | -92.55026 | 36956 ft | 483 kts | 125° |
| 2026-04-23 20:00 | 14.86475 | -92.49192 | 36943 ft | 483 kts | 125° |
| 2026-04-23 20:00 | 14.82825 | -92.43342 | 36931 ft | 483 kts | 125° |
| 2026-04-23 20:01 | 14.79206 | -92.37560 | 36931 ft | 483 kts | 124° |
| 2026-04-23 20:01 | 14.75828 | -92.31543 | 36932 ft | 484 kts | 120° |
| 2026-04-23 20:02 | 14.72713 | -92.25348 | 36941 ft | 484 kts | 119° |
| 2026-04-23 20:02 | 14.69612 | -92.19209 | 36957 ft | 484 kts | 120° |
| 2026-04-23 20:03 | 14.66406 | -92.13097 | 36967 ft | 484 kts | 121° |
| 2026-04-23 20:03 | 14.63166 | -92.06987 | 36976 ft | 484 kts | 121° |
| 2026-04-23 20:04 | 14.59964 | -92.00910 | 36973 ft | 484 kts | 120° |
| 2026-04-23 20:04 | 14.56752 | -91.94787 | 36967 ft | 484 kts | 120° |
| 2026-04-23 20:05 | 14.53557 | -91.88703 | 36959 ft | 483 kts | 120° |
| 2026-04-23 20:05 | 14.50360 | -91.82637 | 36938 ft | 483 kts | 120° |
| 2026-04-23 20:06 | 14.47143 | -91.76542 | 36935 ft | 483 kts | 120° |
| 2026-04-23 20:06 | 14.43926 | -91.70434 | 36937 ft | 483 kts | 120° |
| 2026-04-23 20:07 | 14.40734 | -91.64386 | 36936 ft | 482 kts | 120° |
| 2026-04-23 20:07 | 14.37521 | -91.58298 | 36937 ft | 483 kts | 120° |
| 2026-04-23 20:08 | 14.34313 | -91.52237 | 36942 ft | 483 kts | 120° |
| 2026-04-23 20:08 | 14.31092 | -91.46145 | 36951 ft | 483 kts | 120° |
| 2026-04-23 20:09 | 14.27863 | -91.40046 | 36971 ft | 484 kts | 120° |
| 2026-04-23 20:09 | 14.24647 | -91.33986 | 36973 ft | 484 kts | 120° |
| 2026-04-23 20:10 | 14.21956 | -91.28919 | 36979 ft | 484 kts | 120° |
| 2026-04-23 20:10 | 14.18167 | -91.21782 | 36987 ft | 485 kts | 120° |
| 2026-04-23 20:11 | 14.14943 | -91.15696 | 36996 ft | 485 kts | 120° |
| 2026-04-23 20:11 | 14.11711 | -91.09611 | 36990 ft | 485 kts | 120° |
| 2026-04-23 20:12 | 14.08464 | -91.03508 | 36980 ft | 485 kts | 121° |
| 2026-04-23 20:12 | 14.05208 | -90.97392 | 36970 ft | 485 kts | 121° |
| 2026-04-23 20:13 | 14.01973 | -90.91311 | 36961 ft | 485 kts | 121° |
| 2026-04-23 20:13 | 13.98720 | -90.85209 | 36958 ft | 485 kts | 121° |
| 2026-04-23 20:14 | 13.95476 | -90.79142 | 36957 ft | 485 kts | 121° |
| 2026-04-23 20:14 | 13.92218 | -90.73042 | 36956 ft | 485 kts | 121° |
| 2026-04-23 20:15 | 13.88979 | -90.66978 | 36964 ft | 485 kts | 121° |
| 2026-04-23 20:15 | 13.85721 | -90.60875 | 36981 ft | 485 kts | 121° |
| 2026-04-23 20:16 | 13.82477 | -90.54817 | 37000 ft | 485 kts | 121° |
| 2026-04-23 20:16 | 13.79198 | -90.48709 | 37025 ft | 485 kts | 121° |
| 2026-04-23 20:17 | 13.75953 | -90.42660 | 37022 ft | 485 kts | 121° |
| 2026-04-23 20:17 | 13.72688 | -90.36575 | 37017 ft | 485 kts | 121° |
| 2026-04-23 20:18 | 13.69415 | -90.30474 | 37018 ft | 485 kts | 121° |
| 2026-04-23 20:18 | 13.66149 | -90.24393 | 37016 ft | 485 kts | 121° |
| 2026-04-23 20:19 | 13.62901 | -90.18349 | 37019 ft | 485 kts | 121° |
| 2026-04-23 20:19 | 13.59634 | -90.12262 | 37016 ft | 485 kts | 121° |
| 2026-04-23 20:20 | 13.56368 | -90.06196 | 37014 ft | 484 kts | 121° |
| 2026-04-23 20:20 | 13.53126 | -90.00168 | 37008 ft | 484 kts | 121° |
| 2026-04-23 20:21 | 13.49853 | -89.94103 | 37008 ft | 484 kts | 121° |
| 2026-04-23 20:21 | 13.46596 | -89.88064 | 37006 ft | 484 kts | 121° |
| 2026-04-23 20:22 | 13.43321 | -89.82001 | 37006 ft | 485 kts | 121° |
| 2026-04-23 20:22 | 13.40062 | -89.75975 | 36994 ft | 484 kts | 121° |
| 2026-04-23 20:23 | 13.36784 | -89.69907 | 36980 ft | 484 kts | 121° |
| 2026-04-23 20:23 | 13.33511 | -89.63847 | 36963 ft | 484 kts | 121° |
| 2026-04-23 20:24 | 13.30254 | -89.57821 | 36948 ft | 484 kts | 121° |
| 2026-04-23 20:24 | 13.26968 | -89.51769 | 36936 ft | 484 kts | 121° |
| 2026-04-23 20:25 | 13.23704 | -89.45765 | 36931 ft | 484 kts | 121° |
| 2026-04-23 20:25 | 13.20423 | -89.39716 | 36927 ft | 484 kts | 121° |
| 2026-04-23 20:26 | 13.17148 | -89.33671 | 36926 ft | 484 kts | 121° |
| 2026-04-23 20:26 | 13.13885 | -89.27651 | 36923 ft | 484 kts | 121° |
| 2026-04-23 20:27 | 13.10615 | -89.21649 | 36921 ft | 484 kts | 121° |
| 2026-04-23 20:27 | 13.07331 | -89.15615 | 36919 ft | 484 kts | 121° |
| 2026-04-23 20:28 | 13.04064 | -89.09602 | 36923 ft | 484 kts | 121° |
| 2026-04-23 20:28 | 13.00779 | -89.03572 | 36924 ft | 485 kts | 121° |
| 2026-04-23 20:29 | 12.97486 | -88.97513 | 36928 ft | 485 kts | 121° |
| 2026-04-23 20:29 | 12.94197 | -88.91467 | 36931 ft | 485 kts | 121° |
| 2026-04-23 20:30 | 12.90923 | -88.85453 | 36935 ft | 486 kts | 121° |
| 2026-04-23 20:30 | 12.85980 | -88.76352 | 36936 ft | 486 kts | 121° |
| 2026-04-23 20:31 | 12.82702 | -88.70333 | 36935 ft | 486 kts | 121° |
| 2026-04-23 20:31 | 12.79391 | -88.64277 | 36937 ft | 486 kts | 121° |
| 2026-04-23 20:32 | 12.76647 | -88.59252 | 36932 ft | 486 kts | 121° |
| 2026-04-23 20:32 | 12.72796 | -88.52224 | 36932 ft | 486 kts | 121° |
| 2026-04-23 20:33 | 12.70038 | -88.47202 | 36931 ft | 486 kts | 121° |
| 2026-04-23 20:33 | 12.66726 | -88.41165 | 36937 ft | 486 kts | 121° |
| 2026-04-23 20:34 | 12.63406 | -88.35122 | 36933 ft | 485 kts | 121° |
| 2026-04-23 20:34 | 12.60091 | -88.29095 | 36926 ft | 485 kts | 121° |
| 2026-04-23 20:35 | 12.56789 | -88.23102 | 36929 ft | 486 kts | 121° |
| 2026-04-23 20:35 | 12.53467 | -88.17068 | 36925 ft | 486 kts | 121° |
| 2026-04-23 20:36 | 12.50131 | -88.11029 | 36928 ft | 486 kts | 121° |
| 2026-04-23 20:36 | 12.46801 | -88.04993 | 36928 ft | 486 kts | 121° |
| 2026-04-23 20:37 | 12.43491 | -87.98993 | 36926 ft | 486 kts | 121° |
| 2026-04-23 20:37 | 12.40156 | -87.92952 | 36927 ft | 487 kts | 121° |
| 2026-04-23 20:38 | 12.36838 | -87.86956 | 36927 ft | 486 kts | 121° |
| 2026-04-23 20:38 | 12.33509 | -87.80924 | 36921 ft | 486 kts | 121° |
| 2026-04-23 20:39 | 12.30182 | -87.74887 | 36922 ft | 486 kts | 121° |
| 2026-04-23 20:39 | 12.26850 | -87.68869 | 36921 ft | 486 kts | 121° |
| 2026-04-23 20:40 | 12.23522 | -87.62885 | 36921 ft | 485 kts | 121° |
| 2026-04-23 20:40 | 12.20205 | -87.56916 | 36917 ft | 485 kts | 121° |
| 2026-04-23 20:41 | 12.16866 | -87.50895 | 36913 ft | 484 kts | 121° |
| 2026-04-23 20:41 | 12.13534 | -87.44889 | 36914 ft | 484 kts | 121° |
| 2026-04-23 20:42 | 12.10223 | -87.38929 | 36911 ft | 484 kts | 121° |
| 2026-04-23 20:42 | 12.06897 | -87.32941 | 36914 ft | 484 kts | 121° |
| 2026-04-23 20:43 | 12.03563 | -87.26949 | 36917 ft | 484 kts | 121° |
| 2026-04-23 20:43 | 12.00254 | -87.21005 | 36916 ft | 484 kts | 121° |
| 2026-04-23 20:44 | 11.96922 | -87.15024 | 36918 ft | 484 kts | 121° |
| 2026-04-23 20:44 | 11.93594 | -87.09046 | 36918 ft | 483 kts | 121° |
| 2026-04-23 20:45 | 11.90282 | -87.03103 | 36919 ft | 483 kts | 121° |
| 2026-04-23 20:45 | 11.86950 | -86.97139 | 36916 ft | 483 kts | 121° |
| 2026-04-23 20:46 | 11.83614 | -86.91172 | 36912 ft | 482 kts | 121° |
| 2026-04-23 20:46 | 11.80305 | -86.85245 | 36913 ft | 482 kts | 121° |
| 2026-04-23 20:47 | 11.76977 | -86.79289 | 36911 ft | 482 kts | 121° |
| 2026-04-23 20:47 | 11.73650 | -86.73336 | 36911 ft | 482 kts | 122° |
| 2026-04-23 20:48 | 11.70335 | -86.67432 | 36907 ft | 481 kts | 122° |
| 2026-04-23 20:48 | 11.67012 | -86.61493 | 36903 ft | 481 kts | 122° |
| 2026-04-23 20:49 | 11.63694 | -86.55562 | 36901 ft | 481 kts | 122° |
| 2026-04-23 20:49 | 11.60370 | -86.49635 | 36897 ft | 480 kts | 122° |
| 2026-04-23 20:50 | 11.57068 | -86.43762 | 36894 ft | 479 kts | 122° |
| 2026-04-23 20:50 | 11.53749 | -86.37852 | 36892 ft | 479 kts | 122° |
| 2026-04-23 20:51 | 11.50438 | -86.31950 | 36887 ft | 479 kts | 122° |
| 2026-04-23 20:51 | 11.47145 | -86.26077 | 36890 ft | 479 kts | 122° |
| 2026-04-23 20:52 | 11.43831 | -86.20177 | 36895 ft | 479 kts | 122° |
| 2026-04-23 20:52 | 11.40512 | -86.14287 | 36909 ft | 479 kts | 122° |
| 2026-04-23 20:53 | 11.37215 | -86.08437 | 36890 ft | 478 kts | 122° |
| 2026-04-23 20:53 | 11.33897 | -86.02546 | 36907 ft | 478 kts | 122° |
| 2026-04-23 20:54 | 11.30581 | -85.96658 | 36896 ft | 478 kts | 122° |
| 2026-04-23 20:54 | 11.27286 | -85.90818 | 36904 ft | 478 kts | 122° |
| 2026-04-23 20:55 | 11.23963 | -85.84937 | 36908 ft | 478 kts | 122° |
| 2026-04-23 20:55 | 11.20644 | -85.79062 | 36893 ft | 477 kts | 122° |
| 2026-04-23 20:56 | 11.17363 | -85.73223 | 36902 ft | 477 kts | 122° |
| 2026-04-23 20:56 | 11.14065 | -85.67349 | 36897 ft | 476 kts | 122° |
| 2026-04-23 20:57 | 11.10769 | -85.61495 | 36904 ft | 476 kts | 122° |
| 2026-04-23 20:57 | 11.07484 | -85.55677 | 36902 ft | 476 kts | 122° |
| 2026-04-23 20:58 | 11.04185 | -85.49837 | 36901 ft | 475 kts | 122° |
| 2026-04-23 20:58 | 11.00896 | -85.43995 | 36913 ft | 475 kts | 122° |
| 2026-04-23 20:59 | 10.97616 | -85.38181 | 36925 ft | 474 kts | 122° |
| 2026-04-23 20:59 | 10.94346 | -85.32398 | 36925 ft | 474 kts | 122° |
| 2026-04-23 21:00 | 10.91052 | -85.26569 | 36916 ft | 474 kts | 122° |
| 2026-04-23 21:00 | 10.87758 | -85.20750 | 36917 ft | 473 kts | 122° |
| 2026-04-23 21:01 | 10.84470 | -85.14942 | 36926 ft | 473 kts | 122° |
| 2026-04-23 21:01 | 10.81195 | -85.09156 | 36915 ft | 473 kts | 122° |
| 2026-04-23 21:02 | 10.77913 | -85.03346 | 36918 ft | 473 kts | 122° |
| 2026-04-23 21:02 | 10.74639 | -84.97569 | 36910 ft | 473 kts | 122° |
| 2026-04-23 21:03 | 10.71351 | -84.91777 | 36910 ft | 472 kts | 122° |
| 2026-04-23 21:03 | 10.68064 | -84.85987 | 36910 ft | 472 kts | 122° |
| 2026-04-23 21:04 | 10.64780 | -84.80199 | 36922 ft | 472 kts | 122° |
| 2026-04-23 21:04 | 10.61517 | -84.74442 | 36918 ft | 472 kts | 122° |
| 2026-04-23 21:05 | 10.58223 | -84.68649 | 36934 ft | 471 kts | 122° |
| 2026-04-23 21:05 | 10.54964 | -84.62919 | 36929 ft | 471 kts | 122° |
| 2026-04-23 21:06 | 10.51673 | -84.57146 | 36940 ft | 470 kts | 122° |
| 2026-04-23 21:06 | 10.48395 | -84.51391 | 36946 ft | 470 kts | 122° |
| 2026-04-23 21:07 | 10.45141 | -84.45663 | 36940 ft | 469 kts | 122° |
| 2026-04-23 21:07 | 10.41894 | -84.39950 | 36944 ft | 469 kts | 122° |
| 2026-04-23 21:08 | 10.38617 | -84.34204 | 36952 ft | 468 kts | 122° |
| 2026-04-23 21:08 | 10.35339 | -84.28458 | 36955 ft | 468 kts | 122° |
| 2026-04-23 21:09 | 10.32097 | -84.22774 | 36966 ft | 467 kts | 122° |
| 2026-04-23 21:09 | 10.28825 | -84.17050 | 36988 ft | 467 kts | 122° |
| 2026-04-23 21:10 | 10.25998 | -84.12156 | 37013 ft | 467 kts | 122° |
| 2026-04-23 21:10 | 10.22732 | -84.06441 | 37017 ft | 467 kts | 122° |
| 2026-04-23 21:11 | 10.19490 | -84.00717 | 37018 ft | 467 kts | 122° |
| 2026-04-23 21:11 | 10.16262 | -83.95050 | 37014 ft | 466 kts | 122° |
| 2026-04-23 21:12 | 10.12995 | -83.89353 | 37011 ft | 466 kts | 122° |
| 2026-04-23 21:12 | 10.09748 | -83.83696 | 36994 ft | 465 kts | 122° |
| 2026-04-23 21:13 | 10.06494 | -83.78021 | 36983 ft | 465 kts | 122° |
| 2026-04-23 21:13 | 10.03236 | -83.72336 | 36981 ft | 464 kts | 122° |
| 2026-04-23 21:14 | 9.99982 | -83.66656 | 36987 ft | 464 kts | 122° |
| 2026-04-23 21:14 | 9.96754 | -83.61030 | 36995 ft | 464 kts | 122° |
| 2026-04-23 21:15 | 9.93501 | -83.55367 | 36994 ft | 463 kts | 122° |
| 2026-04-23 21:15 | 9.90258 | -83.49714 | 36995 ft | 463 kts | 122° |
| 2026-04-23 21:16 | 9.87014 | -83.44067 | 36994 ft | 462 kts | 122° |
| 2026-04-23 21:16 | 9.83786 | -83.38453 | 36989 ft | 462 kts | 122° |
| 2026-04-23 21:17 | 9.80544 | -83.32817 | 36981 ft | 462 kts | 122° |
| 2026-04-23 21:17 | 9.77320 | -83.27221 | 36977 ft | 461 kts | 122° |
| 2026-04-23 21:18 | 9.74080 | -83.21585 | 36963 ft | 461 kts | 122° |
| 2026-04-23 21:18 | 9.70866 | -83.15995 | 36958 ft | 461 kts | 122° |
| 2026-04-23 21:19 | 9.68167 | -83.11315 | 36970 ft | 461 kts | 122° |
| 2026-04-23 21:19 | 9.64919 | -83.05695 | 36961 ft | 461 kts | 122° |
| 2026-04-23 21:20 | 9.61703 | -83.00124 | 36953 ft | 461 kts | 122° |
| 2026-04-23 21:20 | 9.58471 | -82.94511 | 36955 ft | 461 kts | 122° |
| 2026-04-23 21:21 | 9.55227 | -82.88892 | 36950 ft | 461 kts | 121° |
| 2026-04-23 21:21 | 9.52778 | -82.82880 | 36954 ft | 463 kts | 110° |
| 2026-04-23 21:22 | 9.50762 | -82.76685 | 36946 ft | 463 kts | 109° |
| 2026-04-23 21:22 | 9.48748 | -82.70526 | 36937 ft | 462 kts | 110° |
| 2026-04-23 21:23 | 9.46715 | -82.64337 | 36938 ft | 463 kts | 110° |
| 2026-04-23 21:23 | 9.44685 | -82.58146 | 36933 ft | 462 kts | 110° |
| 2026-04-23 21:24 | 9.42663 | -82.51950 | 36934 ft | 462 kts | 109° |
| 2026-04-23 21:24 | 9.40650 | -82.45798 | 36934 ft | 462 kts | 110° |
| 2026-04-23 21:25 | 9.38617 | -82.39608 | 36923 ft | 462 kts | 110° |
| 2026-04-23 21:25 | 9.36588 | -82.33450 | 36922 ft | 462 kts | 110° |
| 2026-04-23 21:26 | 9.34549 | -82.27265 | 36912 ft | 462 kts | 110° |
| 2026-04-23 21:26 | 9.32983 | -82.20951 | 36903 ft | 464 kts | 103° |
| 2026-04-23 21:27 | 9.31650 | -82.14580 | 36911 ft | 464 kts | 103° |
| 2026-04-23 21:27 | 9.30298 | -82.08166 | 36911 ft | 464 kts | 103° |
| 2026-04-23 21:28 | 9.28960 | -82.01812 | 36913 ft | 464 kts | 103° |
| 2026-04-23 21:28 | 9.27611 | -81.95406 | 36901 ft | 464 kts | 104° |
| 2026-04-23 21:29 | 9.26262 | -81.89014 | 36898 ft | 464 kts | 104° |
| 2026-04-23 21:29 | 9.24918 | -81.82642 | 36908 ft | 464 kts | 104° |
| 2026-04-23 21:30 | 9.23559 | -81.76231 | 36916 ft | 464 kts | 104° |
| 2026-04-23 21:30 | 9.22207 | -81.69848 | 36925 ft | 463 kts | 104° |
| 2026-04-23 21:31 | 9.20861 | -81.63492 | 36912 ft | 463 kts | 104° |
| 2026-04-23 21:31 | 9.19522 | -81.57147 | 36913 ft | 462 kts | 104° |
| 2026-04-23 21:32 | 9.18178 | -81.50777 | 36923 ft | 462 kts | 104° |
| 2026-04-23 21:32 | 9.16832 | -81.44417 | 36915 ft | 462 kts | 104° |
| 2026-04-23 21:33 | 9.15472 | -81.38059 | 36919 ft | 461 kts | 104° |
| 2026-04-23 21:33 | 9.14125 | -81.31737 | 36911 ft | 461 kts | 104° |
| 2026-04-23 21:34 | 9.12773 | -81.25397 | 36915 ft | 461 kts | 104° |
| 2026-04-23 21:34 | 9.11417 | -81.19039 | 36907 ft | 461 kts | 104° |
| 2026-04-23 21:35 | 9.10069 | -81.12695 | 36916 ft | 461 kts | 104° |
| 2026-04-23 21:35 | 9.08726 | -81.06389 | 36910 ft | 460 kts | 104° |
| 2026-04-23 21:36 | 9.06780 | -80.96873 | 36912 ft | 460 kts | 103° |
| 2026-04-23 21:37 | 9.05542 | -80.90501 | 36913 ft | 460 kts | 103° |
| 2026-04-23 21:37 | 9.04309 | -80.84187 | 36917 ft | 460 kts | 103° |
| 2026-04-23 21:38 | 9.03051 | -80.77823 | 36909 ft | 459 kts | 103° |
| 2026-04-23 21:38 | 9.01800 | -80.71518 | 36912 ft | 459 kts | 103° |
| 2026-04-23 21:39 | 9.00542 | -80.65170 | 36914 ft | 459 kts | 103° |
| 2026-04-23 21:39 | 8.99285 | -80.58840 | 36915 ft | 458 kts | 103° |
| 2026-04-23 21:40 | 8.98038 | -80.52554 | 36912 ft | 458 kts | 103° |
| 2026-04-23 21:40 | 8.96778 | -80.46229 | 36914 ft | 457 kts | 103° |
| 2026-04-23 21:41 | 8.95525 | -80.39924 | 36914 ft | 456 kts | 103° |
| 2026-04-23 21:41 | 8.94282 | -80.33662 | 36909 ft | 456 kts | 104° |
| 2026-04-23 21:42 | 8.93019 | -80.27362 | 36912 ft | 455 kts | 104° |
| 2026-04-23 21:42 | 8.91771 | -80.21124 | 36911 ft | 455 kts | 104° |
| 2026-04-23 21:43 | 8.90517 | -80.14847 | 36905 ft | 455 kts | 104° |
| 2026-04-23 21:43 | 8.89258 | -80.08573 | 36901 ft | 455 kts | 103° |
| 2026-04-23 21:44 | 8.88007 | -80.02287 | 36900 ft | 455 kts | 103° |
| 2026-04-23 21:44 | 8.86756 | -79.96022 | 36899 ft | 455 kts | 104° |
| 2026-04-23 21:45 | 8.85498 | -79.89784 | 36894 ft | 455 kts | 104° |
| 2026-04-23 21:45 | 8.84233 | -79.83490 | 36883 ft | 455 kts | 104° |
| 2026-04-23 21:46 | 8.82979 | -79.77217 | 36884 ft | 455 kts | 104° |
| 2026-04-23 21:46 | 8.81726 | -79.70977 | 36883 ft | 454 kts | 104° |
| 2026-04-23 21:47 | 8.80465 | -79.64744 | 36878 ft | 454 kts | 104° |
| 2026-04-23 21:47 | 8.79199 | -79.58495 | 36880 ft | 453 kts | 104° |
| 2026-04-23 21:48 | 8.77518 | -79.52371 | 36886 ft | 450 kts | 110° |
| 2026-04-23 21:48 | 8.75584 | -79.46381 | 36879 ft | 450 kts | 110° |
| 2026-04-23 21:49 | 8.73644 | -79.40358 | 36880 ft | 450 kts | 110° |
| 2026-04-23 21:49 | 8.71702 | -79.34331 | 36886 ft | 449 kts | 110° |
| 2026-04-23 21:50 | 8.69786 | -79.28364 | 36886 ft | 448 kts | 110° |
| 2026-04-23 21:50 | 8.67857 | -79.22368 | 36882 ft | 448 kts | 110° |
| 2026-04-23 21:51 | 8.65925 | -79.16395 | 36886 ft | 447 kts | 110° |
| 2026-04-23 21:51 | 8.63989 | -79.10412 | 36883 ft | 446 kts | 110° |
| 2026-04-23 21:52 | 8.62071 | -79.04473 | 36894 ft | 446 kts | 110° |
| 2026-04-23 21:52 | 8.60147 | -78.98502 | 36888 ft | 446 kts | 110° |
| 2026-04-23 21:53 | 8.58217 | -78.92533 | 36887 ft | 446 kts | 110° |
| 2026-04-23 21:53 | 8.56292 | -78.86605 | 36889 ft | 446 kts | 110° |
| 2026-04-23 21:54 | 8.54359 | -78.80638 | 36890 ft | 446 kts | 110° |
| 2026-04-23 21:54 | 8.52436 | -78.74683 | 36899 ft | 446 kts | 110° |
| 2026-04-23 21:55 | 8.50516 | -78.68753 | 36893 ft | 446 kts | 110° |
| 2026-04-23 21:55 | 8.48582 | -78.62792 | 36895 ft | 446 kts | 110° |
| 2026-04-23 21:56 | 8.46645 | -78.56820 | 36896 ft | 446 kts | 110° |
| 2026-04-23 21:56 | 8.44716 | -78.50888 | 36898 ft | 447 kts | 110° |
| 2026-04-23 21:57 | 8.42778 | -78.44948 | 36896 ft | 447 kts | 110° |
| 2026-04-23 21:57 | 8.40836 | -78.38960 | 36888 ft | 447 kts | 110° |
| 2026-04-23 21:58 | 8.38900 | -78.32990 | 36901 ft | 447 kts | 110° |
| 2026-04-23 21:58 | 8.36953 | -78.27014 | 36905 ft | 447 kts | 110° |
| 2026-04-23 21:59 | 8.35010 | -78.21064 | 36896 ft | 447 kts | 110° |
| 2026-04-23 21:59 | 8.33066 | -78.15092 | 36891 ft | 448 kts | 110° |
| 2026-04-23 22:00 | 8.30157 | -78.06152 | 36885 ft | 447 kts | 110° |
| 2026-04-23 22:00 | 8.28201 | -78.00179 | 36890 ft | 447 kts | 110° |
| 2026-04-23 22:01 | 8.26250 | -77.94193 | 36886 ft | 447 kts | 110° |
| 2026-04-23 22:01 | 8.24314 | -77.88248 | 36884 ft | 447 kts | 110° |
| 2026-04-23 22:02 | 8.22373 | -77.82319 | 36888 ft | 447 kts | 110° |
| 2026-04-23 22:02 | 8.20418 | -77.76355 | 36885 ft | 446 kts | 110° |
| 2026-04-23 22:03 | 8.18477 | -77.70412 | 36884 ft | 446 kts | 110° |
| 2026-04-23 22:03 | 8.16540 | -77.64490 | 36889 ft | 446 kts | 110° |
| 2026-04-23 22:04 | 8.14593 | -77.58544 | 36898 ft | 446 kts | 110° |
| 2026-04-23 22:04 | 8.12640 | -77.52589 | 36900 ft | 445 kts | 110° |
| 2026-04-23 22:05 | 8.10699 | -77.46680 | 36899 ft | 445 kts | 110° |
| 2026-04-23 22:05 | 8.08760 | -77.40723 | 36900 ft | 445 kts | 110° |
| 2026-04-23 22:06 | 8.06821 | -77.34817 | 36900 ft | 446 kts | 110° |
| 2026-04-23 22:06 | 8.05191 | -77.29866 | 36887 ft | 446 kts | 110° |
| 2026-04-23 22:07 | 8.02918 | -77.22953 | 36882 ft | 446 kts | 109° |
| 2026-04-23 22:07 | 8.01814 | -77.17811 | 36885 ft | 448 kts | 102° |
| 2026-04-23 22:08 | 8.00709 | -77.11659 | 36881 ft | 448 kts | 102° |
| 2026-04-23 22:08 | 7.99601 | -77.05455 | 36883 ft | 449 kts | 102° |
| 2026-04-23 22:09 | 7.98485 | -76.99247 | 36876 ft | 449 kts | 102° |
| 2026-04-23 22:09 | 7.97367 | -76.93042 | 36872 ft | 449 kts | 102° |
| 2026-04-23 22:10 | 7.96257 | -76.86877 | 36857 ft | 449 kts | 102° |
| 2026-04-23 22:10 | 7.95139 | -76.80677 | 36856 ft | 450 kts | 102° |
| 2026-04-23 22:11 | 7.94014 | -76.74444 | 36854 ft | 450 kts | 102° |
| 2026-04-23 22:11 | 7.92901 | -76.68265 | 36855 ft | 450 kts | 102° |
| 2026-04-23 22:12 | 7.91774 | -76.62035 | 36860 ft | 450 kts | 102° |
| 2026-04-23 22:12 | 7.90658 | -76.55857 | 36874 ft | 450 kts | 102° |
| 2026-04-23 22:13 | 7.89534 | -76.49648 | 36879 ft | 449 kts | 102° |
| 2026-04-23 22:13 | 7.88411 | -76.43436 | 36890 ft | 449 kts | 102° |
| 2026-04-23 22:14 | 7.87288 | -76.37275 | 36905 ft | 448 kts | 102° |
| 2026-04-23 22:14 | 7.86158 | -76.31081 | 36902 ft | 448 kts | 102° |
| 2026-04-23 22:15 | 7.85034 | -76.24899 | 36904 ft | 447 kts | 102° |
| 2026-04-23 22:15 | 7.83920 | -76.18760 | 36900 ft | 447 kts | 102° |
| 2026-04-23 22:16 | 7.82797 | -76.12584 | 36901 ft | 447 kts | 102° |
| 2026-04-23 22:16 | 7.81665 | -76.06408 | 36892 ft | 448 kts | 102° |
| 2026-04-23 22:17 | 7.80535 | -76.00214 | 36897 ft | 448 kts | 102° |
| 2026-04-23 22:17 | 7.79413 | -75.94056 | 36892 ft | 448 kts | 102° |
| 2026-04-23 22:18 | 7.78285 | -75.87860 | 36889 ft | 448 kts | 102° |
| 2026-04-23 22:18 | 7.77161 | -75.81708 | 36884 ft | 448 kts | 102° |
| 2026-04-23 22:19 | 7.76031 | -75.75514 | 36892 ft | 449 kts | 102° |
| 2026-04-23 22:19 | 7.74899 | -75.69302 | 36882 ft | 449 kts | 102° |
| 2026-04-23 22:20 | 7.73766 | -75.63124 | 36878 ft | 450 kts | 102° |
| 2026-04-23 22:20 | 7.72621 | -75.56908 | 36876 ft | 450 kts | 102° |
| 2026-04-23 22:21 | 7.71489 | -75.50721 | 36873 ft | 451 kts | 102° |
| 2026-04-23 22:21 | 7.70344 | -75.44494 | 36881 ft | 451 kts | 102° |
| 2026-04-23 22:22 | 7.69193 | -75.38271 | 36878 ft | 452 kts | 102° |
| 2026-04-23 22:22 | 7.68052 | -75.32082 | 36884 ft | 452 kts | 102° |
| 2026-04-23 22:23 | 7.66908 | -75.25854 | 36885 ft | 452 kts | 102° |
| 2026-04-23 22:23 | 7.65767 | -75.19601 | 36888 ft | 452 kts | 102° |
| 2026-04-23 22:24 | 7.64617 | -75.13371 | 36886 ft | 451 kts | 102° |
| 2026-04-23 22:24 | 7.63461 | -75.07143 | 36893 ft | 451 kts | 102° |
| 2026-04-23 22:25 | 7.62306 | -75.00921 | 36887 ft | 451 kts | 103° |
| 2026-04-23 22:25 | 7.61161 | -74.94726 | 36886 ft | 452 kts | 103° |
| 2026-04-23 22:26 | 7.60008 | -74.88497 | 36882 ft | 452 kts | 103° |
| 2026-04-23 22:26 | 7.58848 | -74.82258 | 36886 ft | 452 kts | 103° |
| 2026-04-23 22:27 | 7.57696 | -74.76062 | 36888 ft | 452 kts | 103° |
| 2026-04-23 22:27 | 7.56537 | -74.69829 | 36897 ft | 452 kts | 103° |
| 2026-04-23 22:28 | 7.55381 | -74.63604 | 36902 ft | 451 kts | 103° |
| 2026-04-23 22:28 | 7.54230 | -74.57384 | 36911 ft | 452 kts | 103° |
| 2026-04-23 22:29 | 7.53087 | -74.51201 | 36911 ft | 451 kts | 102° |
| 2026-04-23 22:29 | 7.51927 | -74.44979 | 36911 ft | 451 kts | 102° |
| 2026-04-23 22:30 | 7.50764 | -74.38773 | 36911 ft | 451 kts | 102° |
| 2026-04-23 22:30 | 7.49604 | -74.32555 | 36914 ft | 450 kts | 102° |
| 2026-04-23 22:31 | 7.48451 | -74.26374 | 36908 ft | 450 kts | 102° |
| 2026-04-23 22:31 | 7.47297 | -74.20200 | 36898 ft | 450 kts | 102° |
| 2026-04-23 22:32 | 7.46133 | -74.13991 | 36889 ft | 450 kts | 102° |
| 2026-04-23 22:32 | 7.44974 | -74.07783 | 36880 ft | 451 kts | 102° |
| 2026-04-23 22:33 | 7.43810 | -74.01564 | 36868 ft | 451 kts | 102° |
| 2026-04-23 22:33 | 7.42652 | -73.95374 | 36866 ft | 452 kts | 102° |
| 2026-04-23 22:34 | 7.41482 | -73.89136 | 36858 ft | 452 kts | 102° |
| 2026-04-23 22:34 | 7.40904 | -73.86061 | 36686 ft | 453 kts | 102° |
| 2026-04-23 22:34 | 7.40318 | -73.82939 | 36441 ft | 453 kts | 102° |
| 2026-04-23 22:35 | 7.39734 | -73.79818 | 36193 ft | 453 kts | 102° |
| 2026-04-23 22:35 | 7.39148 | -73.76689 | 35947 ft | 454 kts | 102° |
| 2026-04-23 22:35 | 7.38560 | -73.73558 | 35649 ft | 454 kts | 102° |
| 2026-04-23 22:35 | 7.37968 | -73.70411 | 34763 ft | 460 kts | 102° |
| 2026-04-23 22:36 | 7.37363 | -73.67207 | 33879 ft | 466 kts | 102° |
| 2026-04-23 22:36 | 7.36762 | -73.64028 | 32860 ft | 472 kts | 102° |
| 2026-04-23 22:36 | 7.36142 | -73.60747 | 31816 ft | 478 kts | 102° |
| 2026-04-23 22:36 | 7.35515 | -73.57420 | 30783 ft | 484 kts | 102° |
| 2026-04-23 22:37 | 7.34883 | -73.54066 | 29982 ft | 485 kts | 101° |
| 2026-04-23 22:37 | 7.34265 | -73.50784 | 29247 ft | 481 kts | 101° |
| 2026-04-23 22:37 | 7.33647 | -73.47501 | 28554 ft | 476 kts | 101° |
| 2026-04-23 22:37 | 7.32932 | -73.44240 | 27876 ft | 471 kts | 108° |
| 2026-04-23 22:38 | 7.31698 | -73.41199 | 27214 ft | 465 kts | 118° |
| 2026-04-23 22:38 | 7.29933 | -73.38479 | 26563 ft | 460 kts | 129° |
| 2026-04-23 22:38 | 7.27752 | -73.36199 | 25901 ft | 457 kts | 140° |
| 2026-04-23 22:38 | 7.25189 | -73.34310 | 25235 ft | 454 kts | 146° |
| 2026-04-23 22:39 | 7.22574 | -73.32532 | 24583 ft | 452 kts | 146° |
| 2026-04-23 22:39 | 7.19970 | -73.30758 | 23939 ft | 450 kts | 146° |
| 2026-04-23 22:39 | 7.17368 | -73.28985 | 23260 ft | 448 kts | 146° |
| 2026-04-23 22:39 | 7.14844 | -73.27263 | 22629 ft | 435 kts | 146° |
| 2026-04-23 22:40 | 7.12391 | -73.25589 | 22098 ft | 416 kts | 146° |
| 2026-04-23 22:40 | 7.10040 | -73.23984 | 21564 ft | 399 kts | 146° |
| 2026-04-23 22:40 | 7.05187 | -73.21735 | 20609 ft | 383 kts | 170° |
| 2026-04-23 22:41 | 7.02542 | -73.21562 | 20117 ft | 380 kts | 185° |
| 2026-04-23 22:41 | 6.99982 | -73.22049 | 19572 ft | 380 kts | 199° |
| 2026-04-23 22:41 | 6.97583 | -73.23175 | 19010 ft | 380 kts | 212° |
| 2026-04-23 22:41 | 6.95260 | -73.24455 | 18428 ft | 382 kts | 205° |
| 2026-04-23 22:42 | 6.92754 | -73.25376 | 17858 ft | 382 kts | 195° |
| 2026-04-23 22:42 | 6.90149 | -73.25875 | 17347 ft | 380 kts | 187° |
| 2026-04-23 22:42 | 6.87543 | -73.25980 | 16826 ft | 379 kts | 178° |
| 2026-04-23 22:42 | 6.84924 | -73.25666 | 16306 ft | 379 kts | 168° |
| 2026-04-23 22:43 | 6.82400 | -73.24926 | 15790 ft | 378 kts | 159° |
| 2026-04-23 22:43 | 6.80021 | -73.23782 | 15265 ft | 378 kts | 150° |
| 2026-04-23 22:43 | 6.77866 | -73.22292 | 14760 ft | 377 kts | 141° |
| 2026-04-23 22:43 | 6.75956 | -73.20474 | 14238 ft | 377 kts | 132° |
| 2026-04-23 22:44 | 6.74355 | -73.18384 | 13712 ft | 376 kts | 123° |
| 2026-04-23 22:44 | 6.73112 | -73.16080 | 13153 ft | 375 kts | 113° |
| 2026-04-23 22:44 | 6.72253 | -73.13635 | 12575 ft | 362 kts | 104° |
| 2026-04-23 22:44 | 6.71787 | -73.11232 | 12008 ft | 350 kts | 96° |
| 2026-04-23 22:45 | 6.71696 | -73.08783 | 11440 ft | 350 kts | 82° |
| 2026-04-23 22:45 | 6.72509 | -73.06508 | 10862 ft | 350 kts | 55° |
| 2026-04-23 22:45 | 6.74283 | -73.04872 | 10453 ft | 343 kts | 26° |
| 2026-04-23 22:45 | 6.76519 | -73.04320 | 10335 ft | 328 kts | 358° |
| 2026-04-23 22:46 | 6.78694 | -73.04798 | 10220 ft | 313 kts | 339° |
| 2026-04-23 22:46 | 6.80639 | -73.05624 | 10122 ft | 292 kts | 334° |
| 2026-04-23 22:46 | 6.82379 | -73.06472 | 9997 ft | 272 kts | 333° |
| 2026-04-23 22:46 | 6.84071 | -73.07287 | 9633 ft | 263 kts | 334° |
| 2026-04-23 22:47 | 6.85702 | -73.08026 | 9269 ft | 255 kts | 336° |
| 2026-04-23 22:47 | 6.87314 | -73.08713 | 8933 ft | 248 kts | 337° |
| 2026-04-23 22:47 | 6.88890 | -73.09354 | 8599 ft | 241 kts | 338° |
| 2026-04-23 22:47 | 6.90435 | -73.09974 | 8285 ft | 235 kts | 338° |
| 2026-04-23 22:48 | 6.91934 | -73.10574 | 7974 ft | 229 kts | 338° |
| 2026-04-23 22:48 | 6.93396 | -73.11155 | 7676 ft | 222 kts | 338° |
| 2026-04-23 22:48 | 6.94804 | -73.11713 | 7382 ft | 218 kts | 338° |
| 2026-04-23 22:48 | 6.96201 | -73.12266 | 7115 ft | 211 kts | 338° |
| 2026-04-23 22:49 | 6.97563 | -73.12796 | 6762 ft | 210 kts | 339° |
| 2026-04-23 22:49 | 6.98920 | -73.13312 | 6463 ft | 206 kts | 339° |
| 2026-04-23 22:49 | 7.00238 | -73.13809 | 6195 ft | 202 kts | 339° |
| 2026-04-23 22:49 | 7.01541 | -73.14299 | 5936 ft | 197 kts | 339° |
| 2026-04-23 22:50 | 7.02816 | -73.14778 | 5679 ft | 190 kts | 339° |
| 2026-04-23 22:50 | 7.04021 | -73.15231 | 5452 ft | 180 kts | 339° |
| 2026-04-23 22:50 | 7.05164 | -73.15661 | 5235 ft | 170 kts | 339° |
| 2026-04-23 22:50 | 7.06244 | -73.16067 | 5016 ft | 161 kts | 339° |
| 2026-04-23 22:51 | 7.07255 | -73.16447 | 4828 ft | 154 kts | 340° |
| 2026-04-23 22:51 | 7.08262 | -73.16826 | 4617 ft | 151 kts | 340° |
| 2026-04-23 22:51 | 7.09231 | -73.17190 | 4440 ft | 150 kts | 339° |
| 2026-04-23 22:51 | 7.10206 | -73.17557 | 4236 ft | 149 kts | 339° |
| 2026-04-23 22:52 | 7.11168 | -73.17926 | 4005 ft | 147 kts | 340° |
| 2026-04-23 22:52 | 7.12130 | -73.18281 | 3887 ft | 142 kts | 339° |
| 2026-04-23 22:52 | 7.12858 | -73.18555 | 3910 ft | 70 kts | 339° |
| 2026-04-23 22:52 | 7.13096 | -73.18647 | 3918 ft | 19 kts | 338° |
| 2026-04-23 22:53 | 7.13181 | -73.18651 | 3918 ft | 9 kts | 65° |
| 2026-04-23 22:53 | 7.13171 | -73.18594 | 3917 ft | 8 kts | 110° |
| 2026-04-23 22:53 | 7.13152 | -73.18564 | 3916 ft | 7 kts | 133° |
| 2026-04-23 22:53 | 7.13109 | -73.18541 | 3915 ft | 7 kts | 159° |
| 2026-04-23 22:54 | 7.13063 | -73.18524 | 3914 ft | 7 kts | 161° |
| 2026-04-23 22:54 | 7.13014 | -73.18507 | 3913 ft | 7 kts | 161° |
| 2026-04-23 22:54 | 7.12966 | -73.18491 | 3912 ft | 8 kts | 160° |
| 2026-04-23 22:54 | 7.12915 | -73.18472 | 3905 ft | 8 kts | 160° |
| 2026-04-23 22:55 | 7.12867 | -73.18454 | 3910 ft | 8 kts | 155° |
| 2026-04-23 22:55 | 7.12816 | -73.18433 | 3908 ft | 11 kts | 159° |
| 2026-04-23 22:55 | 7.12731 | -73.18401 | 3904 ft | 14 kts | 159° |
| 2026-04-23 22:55 | 7.12679 | -73.18334 | 3902 ft | 11 kts | 99° |
| 2026-04-23 22:56 | 7.12682 | -73.18256 | 3898 ft | 10 kts | 85° |
| 2026-04-23 22:56 | 7.12717 | -73.18232 | 3899 ft | 4 kts | 14° |
| 2026-04-23 22:56 | 7.12723 | -73.18230 | 3900 ft | 0 kts | 12° |
| 2026-04-23 22:56 | 7.12726 | -73.18230 | 3899 ft | 1 kts | 12° |
| 2026-04-23 22:57 | 7.12727 | -73.18230 | 3899 ft | 0 kts | 12° |
| 2026-04-23 22:57 | 7.12729 | -73.18229 | 3899 ft | 0 kts | 12° |